sensor_id;sensor_type;location;lat;lon;timestamp;pressure;altitude;pressure_sealevel;temperature;humidity
64933;BME280;51446;53.850;10.662;2022-12-20T00:01:20;101306.59;;;4.39;100.00
64933;BME280;51446;53.850;10.662;2022-12-20T00:03:48;101320.13;;;4.50;100.00
64933;BME280;51446;53.850;10.662;2022-12-20T00:06:14;101313.31;;;4.52;100.00
64933;BME280;51446;53.850;10.662;2022-12-20T00:08:39;101306.88;;;4.44;100.00
64933;BME280;51446;53.850;10.662;2022-12-20T00:11:06;101306.50;;;4.54;100.00
64933;BME280;51446;53.850;10.662;2022-12-20T00:13:33;101312.84;;;4.61;100.00
64933;BME280;51446;53.850;10.662;2022-12-20T00:16:08;101309.09;;;4.54;100.00
64933;BME280;51446;53.850;10.662;2022-12-20T00:18:35;101302.91;;;4.52;100.00
64933;BME280;51446;53.850;10.662;2022-12-20T00:21:01;101309.44;;;4.62;100.00
64933;BME280;51446;53.850;10.662;2022-12-20T00:23:27;101312.06;;;4.62;100.00
64933;BME280;51446;53.850;10.662;2022-12-20T00:26:20;101311.03;;;4.58;100.00
64933;BME280;51446;53.850;10.662;2022-12-20T00:28:45;101313.03;;;4.64;100.00
64933;BME280;51446;53.850;10.662;2022-12-20T00:31:13;101303.66;;;4.67;100.00
64933;BME280;51446;53.850;10.662;2022-12-20T00:33:39;101300.84;;;4.63;100.00
64933;BME280;51446;53.850;10.662;2022-12-20T00:36:06;101294.16;;;4.68;100.00
64933;BME280;51446;53.850;10.662;2022-12-20T00:38:32;101281.03;;;4.65;100.00
64933;BME280;51446;53.850;10.662;2022-12-20T00:41:10;101285.75;;;4.74;100.00
64933;BME280;51446;53.850;10.662;2022-12-20T00:43:36;101289.47;;;4.79;100.00
64933;BME280;51446;53.850;10.662;2022-12-20T00:46:02;101283.47;;;4.80;100.00
64933;BME280;51446;53.850;10.662;2022-12-20T00:48:29;101282.19;;;4.90;100.00
64933;BME280;51446;53.850;10.662;2022-12-20T00:51:07;101276.44;;;4.97;100.00
64933;BME280;51446;53.850;10.662;2022-12-20T00:53:32;101272.03;;;4.94;100.00
64933;BME280;51446;53.850;10.662;2022-12-20T00:55:58;101276.84;;;5.04;100.00
64933;BME280;51446;53.850;10.662;2022-12-20T00:58:24;101267.84;;;4.98;100.00
64933;BME280;51446;53.850;10.662;2022-12-20T01:00:49;101268.34;;;5.09;100.00
64933;BME280;51446;53.850;10.662;2022-12-20T01:03:15;101266.03;;;5.15;100.00
64933;BME280;51446;53.850;10.662;2022-12-20T01:05:56;101266.91;;;5.15;100.00
64933;BME280;51446;53.850;10.662;2022-12-20T01:08:22;101258.50;;;5.21;100.00
64933;BME280;51446;53.850;10.662;2022-12-20T01:13:35;101253.78;;;5.12;100.00
64933;BME280;51446;53.850;10.662;2022-12-20T01:16:06;101252.75;;;5.28;100.00
64933;BME280;51446;53.850;10.662;2022-12-20T01:18:33;101257.28;;;5.32;100.00
64933;BME280;51446;53.850;10.662;2022-12-20T01:21:00;101264.19;;;5.32;100.00
64933;BME280;51446;53.850;10.662;2022-12-20T01:23:26;101263.47;;;5.34;100.00
64933;BME280;51446;53.850;10.662;2022-12-20T01:25:51;101272.41;;;5.41;100.00
64933;BME280;51446;53.850;10.662;2022-12-20T01:28:16;101266.19;;;5.37;100.00
64933;BME280;51446;53.850;10.662;2022-12-20T01:30:41;101265.66;;;5.45;100.00
64933;BME280;51446;53.850;10.662;2022-12-20T01:33:07;101274.47;;;5.48;100.00
64933;BME280;51446;53.850;10.662;2022-12-20T01:35:32;101256.25;;;5.48;100.00
64933;BME280;51446;53.850;10.662;2022-12-20T01:37:57;101255.97;;;5.42;100.00
64933;BME280;51446;53.850;10.662;2022-12-20T01:40:23;101255.97;;;5.42;100.00
64933;BME280;51446;53.850;10.662;2022-12-20T01:42:48;101252.88;;;5.31;100.00
64933;BME280;51446;53.850;10.662;2022-12-20T01:45:22;101255.97;;;5.22;100.00
64933;BME280;51446;53.850;10.662;2022-12-20T01:47:49;101253.16;;;5.18;100.00
64933;BME280;51446;53.850;10.662;2022-12-20T01:50:14;101254.59;;;5.11;100.00
64933;BME280;51446;53.850;10.662;2022-12-20T01:52:42;101252.31;;;4.99;100.00
64933;BME280;51446;53.850;10.662;2022-12-20T01:55:17;101253.50;;;5.06;100.00
64933;BME280;51446;53.850;10.662;2022-12-20T01:57:47;101247.19;;;5.01;100.00
64933;BME280;51446;53.850;10.662;2022-12-20T02:00:16;101253.09;;;5.16;100.00
64933;BME280;51446;53.850;10.662;2022-12-20T02:02:42;101256.72;;;5.00;100.00
64933;BME280;51446;53.850;10.662;2022-12-20T02:05:08;101250.00;;;5.06;100.00
64933;BME280;51446;53.850;10.662;2022-12-20T02:07:34;101246.50;;;5.05;100.00
64933;BME280;51446;53.850;10.662;2022-12-20T02:10:02;101245.97;;;5.12;100.00
64933;BME280;51446;53.850;10.662;2022-12-20T02:12:39;101240.72;;;5.11;100.00
64933;BME280;51446;53.850;10.662;2022-12-20T02:16:22;101239.00;;;5.11;100.00
64933;BME280;51446;53.850;10.662;2022-12-20T02:18:21;101244.63;;;5.20;100.00
64933;BME280;51446;53.850;10.662;2022-12-20T02:21:03;101246.75;;;5.29;100.00
64933;BME280;51446;53.850;10.662;2022-12-20T02:23:51;101237.50;;;5.36;100.00
64933;BME280;51446;53.850;10.662;2022-12-20T02:26:58;101236.22;;;5.26;100.00
64933;BME280;51446;53.850;10.662;2022-12-20T02:32:15;101248.47;;;5.29;100.00
64933;BME280;51446;53.850;10.662;2022-12-20T02:34:42;101244.41;;;5.35;100.00
64933;BME280;51446;53.850;10.662;2022-12-20T02:37:09;101248.31;;;5.45;100.00
64933;BME280;51446;53.850;10.662;2022-12-20T02:39:37;101241.13;;;5.39;100.00
64933;BME280;51446;53.850;10.662;2022-12-20T02:42:08;101245.22;;;5.54;100.00
64933;BME280;51446;53.850;10.662;2022-12-20T02:44:36;101245.03;;;5.49;100.00
64933;BME280;51446;53.850;10.662;2022-12-20T02:47:52;101241.31;;;5.44;100.00
64933;BME280;51446;53.850;10.662;2022-12-20T02:50:22;101238.22;;;5.53;100.00
64933;BME280;51446;53.850;10.662;2022-12-20T02:52:50;101245.00;;;5.69;100.00
64933;BME280;51446;53.850;10.662;2022-12-20T02:55:16;101234.88;;;5.75;100.00
64933;BME280;51446;53.850;10.662;2022-12-20T02:57:47;101230.47;;;5.74;100.00
64933;BME280;51446;53.850;10.662;2022-12-20T03:00:18;101230.53;;;5.76;100.00
64933;BME280;51446;53.850;10.662;2022-12-20T03:02:44;101232.19;;;5.73;100.00
64933;BME280;51446;53.850;10.662;2022-12-20T03:05:49;101235.13;;;5.81;100.00
64933;BME280;51446;53.850;10.662;2022-12-20T03:08:15;101240.16;;;5.98;100.00
64933;BME280;51446;53.850;10.662;2022-12-20T03:10:41;101235.25;;;6.04;100.00
64933;BME280;51446;53.850;10.662;2022-12-20T03:13:07;101235.88;;;5.98;100.00
64933;BME280;51446;53.850;10.662;2022-12-20T03:15:41;101229.34;;;6.08;100.00
64933;BME280;51446;53.850;10.662;2022-12-20T03:18:07;101235.50;;;6.10;100.00
64933;BME280;51446;53.850;10.662;2022-12-20T03:20:32;101233.06;;;6.15;100.00
64933;BME280;51446;53.850;10.662;2022-12-20T03:22:57;101219.16;;;6.14;100.00
64933;BME280;51446;53.850;10.662;2022-12-20T03:25:23;101225.66;;;6.24;100.00
64933;BME280;51446;53.850;10.662;2022-12-20T03:27:48;101230.22;;;6.30;100.00
64933;BME280;51446;53.850;10.662;2022-12-20T03:30:14;101221.06;;;6.18;100.00
64933;BME280;51446;53.850;10.662;2022-12-20T03:32:39;101214.91;;;6.16;100.00
64933;BME280;51446;53.850;10.662;2022-12-20T03:35:05;101222.25;;;6.27;100.00
64933;BME280;51446;53.850;10.662;2022-12-20T03:37:30;101226.72;;;6.29;100.00
64933;BME280;51446;53.850;10.662;2022-12-20T03:39:55;101218.06;;;6.30;100.00
64933;BME280;51446;53.850;10.662;2022-12-20T03:42:21;101229.06;;;6.23;100.00
64933;BME280;51446;53.850;10.662;2022-12-20T03:44:46;101236.81;;;6.21;100.00
64933;BME280;51446;53.850;10.662;2022-12-20T03:47:11;101228.63;;;6.12;100.00
64933;BME280;51446;53.850;10.662;2022-12-20T03:49:36;101229.28;;;6.06;100.00
64933;BME280;51446;53.850;10.662;2022-12-20T03:52:02;101227.16;;;5.98;100.00
64933;BME280;51446;53.850;10.662;2022-12-20T03:54:27;101221.59;;;5.90;100.00
64933;BME280;51446;53.850;10.662;2022-12-20T03:56:52;101225.38;;;5.97;100.00
64933;BME280;51446;53.850;10.662;2022-12-20T03:59:18;101232.00;;;5.90;100.00
64933;BME280;51446;53.850;10.662;2022-12-20T04:01:43;101225.94;;;5.89;100.00
64933;BME280;51446;53.850;10.662;2022-12-20T04:04:10;101221.66;;;5.91;100.00
64933;BME280;51446;53.850;10.662;2022-12-20T04:06:36;101230.94;;;5.85;100.00
64933;BME280;51446;53.850;10.662;2022-12-20T04:09:01;101228.94;;;5.99;100.00
64933;BME280;51446;53.850;10.662;2022-12-20T04:11:27;101230.22;;;5.89;100.00
64933;BME280;51446;53.850;10.662;2022-12-20T04:13:53;101221.91;;;5.77;100.00
64933;BME280;51446;53.850;10.662;2022-12-20T04:16:21;101226.56;;;5.84;100.00
64933;BME280;51446;53.850;10.662;2022-12-20T04:18:46;101217.78;;;5.82;100.00
64933;BME280;51446;53.850;10.662;2022-12-20T04:21:12;101220.16;;;5.97;100.00
64933;BME280;51446;53.850;10.662;2022-12-20T04:23:39;101214.34;;;6.02;100.00
64933;BME280;51446;53.850;10.662;2022-12-20T04:26:06;101195.44;;;6.06;100.00
64933;BME280;51446;53.850;10.662;2022-12-20T04:28:33;101192.50;;;6.20;100.00
64933;BME280;51446;53.850;10.662;2022-12-20T04:30:58;101196.50;;;6.12;100.00
64933;BME280;51446;53.850;10.662;2022-12-20T04:33:25;101200.06;;;6.14;100.00
64933;BME280;51446;53.850;10.662;2022-12-20T04:35:51;101193.25;;;6.17;100.00
64933;BME280;51446;53.850;10.662;2022-12-20T04:38:17;101190.13;;;6.26;100.00
64933;BME280;51446;53.850;10.662;2022-12-20T04:40:43;101194.91;;;6.15;100.00
64933;BME280;51446;53.850;10.662;2022-12-20T04:43:09;101198.63;;;6.22;100.00
64933;BME280;51446;53.850;10.662;2022-12-20T04:45:34;101200.47;;;6.24;100.00
64933;BME280;51446;53.850;10.662;2022-12-20T04:48:00;101194.44;;;6.25;100.00
64933;BME280;51446;53.850;10.662;2022-12-20T04:50:25;101193.03;;;6.34;100.00
64933;BME280;51446;53.850;10.662;2022-12-20T04:52:50;101187.63;;;6.29;100.00
64933;BME280;51446;53.850;10.662;2022-12-20T04:55:38;101186.75;;;6.29;100.00
64933;BME280;51446;53.850;10.662;2022-12-20T04:58:04;101179.41;;;6.41;100.00
64933;BME280;51446;53.850;10.662;2022-12-20T05:00:30;101181.56;;;6.29;100.00
64933;BME280;51446;53.850;10.662;2022-12-20T05:02:56;101170.38;;;6.31;100.00
64933;BME280;51446;53.850;10.662;2022-12-20T05:05:22;101179.06;;;6.32;100.00
64933;BME280;51446;53.850;10.662;2022-12-20T05:07:47;101178.13;;;6.30;100.00
64933;BME280;51446;53.850;10.662;2022-12-20T05:10:12;101182.47;;;6.31;100.00
64933;BME280;51446;53.850;10.662;2022-12-20T05:12:37;101179.72;;;6.26;100.00
64933;BME280;51446;53.850;10.662;2022-12-20T05:15:03;101180.28;;;6.19;100.00
64933;BME280;51446;53.850;10.662;2022-12-20T05:17:28;101179.28;;;6.15;100.00
64933;BME280;51446;53.850;10.662;2022-12-20T05:19:54;101179.22;;;6.14;100.00
64933;BME280;51446;53.850;10.662;2022-12-20T05:22:19;101178.25;;;6.12;100.00
64933;BME280;51446;53.850;10.662;2022-12-20T05:25:03;101178.06;;;6.28;100.00
64933;BME280;51446;53.850;10.662;2022-12-20T05:27:47;101181.25;;;6.21;100.00
64933;BME280;51446;53.850;10.662;2022-12-20T05:30:12;101184.91;;;6.26;100.00
64933;BME280;51446;53.850;10.662;2022-12-20T05:32:38;101180.97;;;6.15;100.00
64933;BME280;51446;53.850;10.662;2022-12-20T05:35:03;101186.66;;;6.04;100.00
64933;BME280;51446;53.850;10.662;2022-12-20T05:37:28;101191.91;;;6.06;100.00
64933;BME280;51446;53.850;10.662;2022-12-20T05:39:54;101195.09;;;5.99;100.00
64933;BME280;51446;53.850;10.662;2022-12-20T05:42:19;101191.28;;;6.12;100.00
64933;BME280;51446;53.850;10.662;2022-12-20T05:44:44;101192.69;;;6.03;100.00
64933;BME280;51446;53.850;10.662;2022-12-20T05:47:10;101190.91;;;6.02;100.00
64933;BME280;51446;53.850;10.662;2022-12-20T05:49:35;101198.78;;;6.04;100.00
64933;BME280;51446;53.850;10.662;2022-12-20T05:52:01;101186.41;;;5.98;100.00
64933;BME280;51446;53.850;10.662;2022-12-20T05:54:27;101186.53;;;5.82;100.00
64933;BME280;51446;53.850;10.662;2022-12-20T05:56:52;101184.34;;;5.91;100.00
64933;BME280;51446;53.850;10.662;2022-12-20T05:59:17;101186.53;;;6.01;100.00
64933;BME280;51446;53.850;10.662;2022-12-20T06:01:43;101183.31;;;5.87;100.00
64933;BME280;51446;53.850;10.662;2022-12-20T06:04:08;101184.00;;;5.83;100.00
64933;BME280;51446;53.850;10.662;2022-12-20T06:06:33;101181.22;;;5.79;100.00
64933;BME280;51446;53.850;10.662;2022-12-20T06:08:58;101181.94;;;5.96;100.00
64933;BME280;51446;53.850;10.662;2022-12-20T06:11:24;101177.09;;;5.84;100.00
64933;BME280;51446;53.850;10.662;2022-12-20T06:13:49;101179.41;;;5.97;100.00
64933;BME280;51446;53.850;10.662;2022-12-20T06:16:14;101180.72;;;5.87;100.00
64933;BME280;51446;53.850;10.662;2022-12-20T06:18:40;101168.28;;;5.80;100.00
64933;BME280;51446;53.850;10.662;2022-12-20T06:21:05;101169.38;;;5.85;100.00
64933;BME280;51446;53.850;10.662;2022-12-20T06:23:31;101171.16;;;5.86;100.00
64933;BME280;51446;53.850;10.662;2022-12-20T06:25:56;101167.75;;;5.89;100.00
64933;BME280;51446;53.850;10.662;2022-12-20T06:28:22;101175.72;;;5.92;100.00
64933;BME280;51446;53.850;10.662;2022-12-20T06:30:54;101176.41;;;5.88;100.00
64933;BME280;51446;53.850;10.662;2022-12-20T06:33:20;101179.31;;;5.96;100.00
64933;BME280;51446;53.850;10.662;2022-12-20T06:35:45;101183.38;;;5.89;100.00
64933;BME280;51446;53.850;10.662;2022-12-20T06:38:10;101186.13;;;5.92;100.00
64933;BME280;51446;53.850;10.662;2022-12-20T06:40:36;101194.28;;;6.00;100.00
64933;BME280;51446;53.850;10.662;2022-12-20T06:43:01;101196.00;;;5.99;100.00
64933;BME280;51446;53.850;10.662;2022-12-20T06:45:27;101192.28;;;5.94;100.00
64933;BME280;51446;53.850;10.662;2022-12-20T06:47:52;101196.19;;;6.04;100.00
64933;BME280;51446;53.850;10.662;2022-12-20T06:50:17;101196.13;;;6.02;100.00
64933;BME280;51446;53.850;10.662;2022-12-20T06:52:43;101186.31;;;5.97;100.00
64933;BME280;51446;53.850;10.662;2022-12-20T06:55:08;101184.94;;;6.05;100.00
64933;BME280;51446;53.850;10.662;2022-12-20T06:57:33;101186.41;;;5.98;100.00
64933;BME280;51446;53.850;10.662;2022-12-20T06:59:58;101187.41;;;6.02;100.00
64933;BME280;51446;53.850;10.662;2022-12-20T07:02:24;101188.31;;;6.02;100.00
64933;BME280;51446;53.850;10.662;2022-12-20T07:04:49;101181.31;;;6.01;100.00
64933;BME280;51446;53.850;10.662;2022-12-20T07:07:15;101181.38;;;6.03;100.00
64933;BME280;51446;53.850;10.662;2022-12-20T07:09:41;101176.25;;;6.04;100.00
64933;BME280;51446;53.850;10.662;2022-12-20T07:12:07;101177.13;;;6.05;100.00
64933;BME280;51446;53.850;10.662;2022-12-20T07:14:33;101182.25;;;6.03;100.00
64933;BME280;51446;53.850;10.662;2022-12-20T07:16:58;101174.91;;;6.14;100.00
64933;BME280;51446;53.850;10.662;2022-12-20T07:19:24;101169.47;;;6.08;100.00
64933;BME280;51446;53.850;10.662;2022-12-20T07:21:49;101166.22;;;6.14;100.00
64933;BME280;51446;53.850;10.662;2022-12-20T07:24:14;101166.38;;;6.18;100.00
64933;BME280;51446;53.850;10.662;2022-12-20T07:26:39;101170.41;;;6.10;100.00
64933;BME280;51446;53.850;10.662;2022-12-20T07:29:05;101168.25;;;6.21;100.00
64933;BME280;51446;53.850;10.662;2022-12-20T07:31:30;101172.06;;;6.31;100.00
64933;BME280;51446;53.850;10.662;2022-12-20T07:33:56;101162.28;;;6.25;100.00
64933;BME280;51446;53.850;10.662;2022-12-20T07:36:21;101163.31;;;6.29;100.00
64933;BME280;51446;53.850;10.662;2022-12-20T07:38:46;101173.97;;;6.35;100.00
64933;BME280;51446;53.850;10.662;2022-12-20T07:41:15;101171.41;;;6.36;100.00
64933;BME280;51446;53.850;10.662;2022-12-20T07:43:42;101172.97;;;6.31;100.00
64933;BME280;51446;53.850;10.662;2022-12-20T07:46:08;101179.94;;;6.32;100.00
64933;BME280;51446;53.850;10.662;2022-12-20T07:48:35;101190.25;;;6.29;100.00
64933;BME280;51446;53.850;10.662;2022-12-20T07:51:08;101190.56;;;6.37;100.00
64933;BME280;51446;53.850;10.662;2022-12-20T07:53:38;101181.66;;;6.32;100.00
64933;BME280;51446;53.850;10.662;2022-12-20T07:56:05;101185.16;;;6.32;100.00
64933;BME280;51446;53.850;10.662;2022-12-20T07:58:32;101190.78;;;6.43;100.00
64933;BME280;51446;53.850;10.662;2022-12-20T08:01:00;101181.91;;;6.38;100.00
64933;BME280;51446;53.850;10.662;2022-12-20T08:03:49;101178.88;;;6.27;100.00
64933;BME280;51446;53.850;10.662;2022-12-20T08:06:17;101176.09;;;6.22;100.00
64933;BME280;51446;53.850;10.662;2022-12-20T08:08:48;101177.66;;;6.40;100.00
64933;BME280;51446;53.850;10.662;2022-12-20T08:11:15;101163.94;;;6.44;100.00
64933;BME280;51446;53.850;10.662;2022-12-20T08:13:42;101169.59;;;6.56;100.00
64933;BME280;51446;53.850;10.662;2022-12-20T08:16:07;101161.06;;;6.60;100.00
64933;BME280;51446;53.850;10.662;2022-12-20T08:18:33;101172.50;;;6.64;100.00
64933;BME280;51446;53.850;10.662;2022-12-20T08:20:58;101167.16;;;6.61;100.00
64933;BME280;51446;53.850;10.662;2022-12-20T08:23:23;101156.22;;;6.70;100.00
64933;BME280;51446;53.850;10.662;2022-12-20T08:25:48;101160.53;;;6.69;100.00
64933;BME280;51446;53.850;10.662;2022-12-20T08:28:14;101146.13;;;6.79;100.00
64933;BME280;51446;53.850;10.662;2022-12-20T08:30:39;101145.06;;;6.74;100.00
64933;BME280;51446;53.850;10.662;2022-12-20T08:33:05;101156.88;;;6.88;100.00
64933;BME280;51446;53.850;10.662;2022-12-20T08:35:30;101154.28;;;6.88;100.00
64933;BME280;51446;53.850;10.662;2022-12-20T08:37:55;101148.94;;;6.85;100.00
64933;BME280;51446;53.850;10.662;2022-12-20T08:40:20;101146.41;;;6.87;100.00
64933;BME280;51446;53.850;10.662;2022-12-20T08:42:46;101149.00;;;6.87;100.00
64933;BME280;51446;53.850;10.662;2022-12-20T08:45:11;101147.38;;;6.89;100.00
64933;BME280;51446;53.850;10.662;2022-12-20T08:47:36;101154.22;;;6.87;100.00
64933;BME280;51446;53.850;10.662;2022-12-20T08:50:02;101136.38;;;6.98;100.00
64933;BME280;51446;53.850;10.662;2022-12-20T08:52:28;101137.97;;;6.94;100.00
64933;BME280;51446;53.850;10.662;2022-12-20T08:54:53;101124.16;;;6.97;100.00
64933;BME280;51446;53.850;10.662;2022-12-20T08:57:19;101138.38;;;7.05;100.00
64933;BME280;51446;53.850;10.662;2022-12-20T08:59:44;101123.50;;;7.02;100.00
64933;BME280;51446;53.850;10.662;2022-12-20T09:02:09;101119.91;;;6.99;100.00
64933;BME280;51446;53.850;10.662;2022-12-20T09:04:34;101119.97;;;7.00;100.00
64933;BME280;51446;53.850;10.662;2022-12-20T09:07:00;101127.28;;;7.10;100.00
64933;BME280;51446;53.850;10.662;2022-12-20T09:09:25;101121.41;;;7.16;100.00
64933;BME280;51446;53.850;10.662;2022-12-20T09:11:50;101122.59;;;7.26;100.00
64933;BME280;51446;53.850;10.662;2022-12-20T09:14:17;101126.66;;;7.18;100.00
64933;BME280;51446;53.850;10.662;2022-12-20T09:16:42;101130.53;;;7.29;100.00
64933;BME280;51446;53.850;10.662;2022-12-20T09:19:11;101117.59;;;7.32;100.00
64933;BME280;51446;53.850;10.662;2022-12-20T09:21:36;101118.22;;;7.25;100.00
64933;BME280;51446;53.850;10.662;2022-12-20T09:24:02;101120.97;;;7.29;100.00
64933;BME280;51446;53.850;10.662;2022-12-20T09:26:27;101118.56;;;7.36;100.00
64933;BME280;51446;53.850;10.662;2022-12-20T09:28:53;101115.03;;;7.34;100.00
64933;BME280;51446;53.850;10.662;2022-12-20T09:31:20;101124.47;;;7.30;100.00
64933;BME280;51446;53.850;10.662;2022-12-20T09:33:46;101125.63;;;7.38;100.00
64933;BME280;51446;53.850;10.662;2022-12-20T09:36:13;101109.94;;;7.37;100.00
64933;BME280;51446;53.850;10.662;2022-12-20T09:38:40;101107.13;;;7.31;100.00
64933;BME280;51446;53.850;10.662;2022-12-20T09:41:07;101104.59;;;7.34;100.00
64933;BME280;51446;53.850;10.662;2022-12-20T09:43:33;101113.69;;;7.45;100.00
64933;BME280;51446;53.850;10.662;2022-12-20T09:46:00;101125.06;;;7.47;100.00
64933;BME280;51446;53.850;10.662;2022-12-20T09:48:38;101124.44;;;7.54;100.00
64933;BME280;51446;53.850;10.662;2022-12-20T09:54:01;101121.09;;;7.58;100.00
64933;BME280;51446;53.850;10.662;2022-12-20T09:56:38;101127.22;;;7.60;100.00
64933;BME280;51446;53.850;10.662;2022-12-20T09:59:12;101118.72;;;7.66;100.00
64933;BME280;51446;53.850;10.662;2022-12-20T10:01:38;101110.91;;;7.66;100.00
64933;BME280;51446;53.850;10.662;2022-12-20T10:04:18;101106.38;;;7.88;100.00
64933;BME280;51446;53.850;10.662;2022-12-20T10:09:41;101113.88;;;8.04;100.00
64933;BME280;51446;53.850;10.662;2022-12-20T10:17:57;101106.00;;;8.03;100.00
64933;BME280;51446;53.850;10.662;2022-12-20T10:20:30;101103.59;;;8.10;100.00
64933;BME280;51446;53.850;10.662;2022-12-20T10:23:07;101101.03;;;8.12;100.00
64933;BME280;51446;53.850;10.662;2022-12-20T10:25:35;101106.53;;;8.20;100.00
64933;BME280;51446;53.850;10.662;2022-12-20T10:28:04;101100.03;;;8.36;100.00
64933;BME280;51446;53.850;10.662;2022-12-20T10:30:34;101089.72;;;8.40;100.00
64933;BME280;51446;53.850;10.662;2022-12-20T10:33:00;101088.03;;;8.42;100.00
64933;BME280;51446;53.850;10.662;2022-12-20T10:35:33;101085.16;;;8.33;100.00
64933;BME280;51446;53.850;10.662;2022-12-20T10:38:05;101084.19;;;8.31;100.00
64933;BME280;51446;53.850;10.662;2022-12-20T10:40:37;101072.03;;;8.31;100.00
64933;BME280;51446;53.850;10.662;2022-12-20T10:43:07;101060.97;;;8.40;100.00
64933;BME280;51446;53.850;10.662;2022-12-20T10:45:41;101061.63;;;8.33;100.00
64933;BME280;51446;53.850;10.662;2022-12-20T10:48:30;101054.00;;;8.41;100.00
64933;BME280;51446;53.850;10.662;2022-12-20T10:51:11;101047.94;;;8.42;100.00
64933;BME280;51446;53.850;10.662;2022-12-20T10:56:25;101039.78;;;8.61;100.00
64933;BME280;51446;53.850;10.662;2022-12-20T10:59:24;101040.00;;;8.67;100.00
64933;BME280;51446;53.850;10.662;2022-12-20T11:01:52;101039.94;;;8.66;100.00
64933;BME280;51446;53.850;10.662;2022-12-20T11:04:27;101042.00;;;8.78;100.00
64933;BME280;51446;53.850;10.662;2022-12-20T11:06:53;101040.00;;;9.01;100.00
64933;BME280;51446;53.850;10.662;2022-12-20T11:14:28;101016.59;;;9.06;100.00
64933;BME280;51446;53.850;10.662;2022-12-20T11:16:55;101005.97;;;8.99;100.00
64933;BME280;51446;53.850;10.662;2022-12-20T11:22:09;101000.13;;;9.10;100.00
64933;BME280;51446;53.850;10.662;2022-12-20T11:24:48;101001.88;;;9.09;100.00
64933;BME280;51446;53.850;10.662;2022-12-20T11:27:39;101014.19;;;9.13;100.00
64933;BME280;51446;53.850;10.662;2022-12-20T11:30:29;101007.91;;;9.07;100.00
64933;BME280;51446;53.850;10.662;2022-12-20T11:36:05;101006.97;;;9.05;100.00
64933;BME280;51446;53.850;10.662;2022-12-20T11:44:18;100972.53;;;8.88;100.00
64933;BME280;51446;53.850;10.662;2022-12-20T11:46:57;100963.00;;;8.90;100.00
64933;BME280;51446;53.850;10.662;2022-12-20T11:52:34;100971.09;;;8.99;100.00
64933;BME280;51446;53.850;10.662;2022-12-20T11:57:43;100961.63;;;9.04;100.00
64933;BME280;51446;53.850;10.662;2022-12-20T12:00:12;100956.19;;;8.96;100.00
64933;BME280;51446;53.850;10.662;2022-12-20T12:02:46;100956.13;;;8.93;100.00
64933;BME280;51446;53.850;10.662;2022-12-20T12:05:45;100956.19;;;8.96;100.00
64933;BME280;51446;53.850;10.662;2022-12-20T12:08:18;100957.09;;;8.98;100.00
64933;BME280;51446;53.850;10.662;2022-12-20T12:10:57;100959.78;;;9.01;100.00
64933;BME280;51446;53.850;10.662;2022-12-20T12:13:27;100945.00;;;9.02;100.00
64933;BME280;51446;53.850;10.662;2022-12-20T12:16:07;100949.47;;;9.06;100.00
64933;BME280;51446;53.850;10.662;2022-12-20T12:18:35;100951.88;;;8.98;100.00
64933;BME280;51446;53.850;10.662;2022-12-20T12:23:44;100942.31;;;8.99;100.00
64933;BME280;51446;53.850;10.662;2022-12-20T12:26:20;100940.28;;;8.89;100.00
64933;BME280;51446;53.850;10.662;2022-12-20T12:28:51;100951.84;;;8.97;100.00
64933;BME280;51446;53.850;10.662;2022-12-20T12:31:23;100951.88;;;8.98;100.00
64933;BME280;51446;53.850;10.662;2022-12-20T12:40:08;100941.56;;;8.70;100.00
64933;BME280;51446;53.850;10.662;2022-12-20T12:48:23;100945.84;;;8.66;100.00
64933;BME280;51446;53.850;10.662;2022-12-20T12:50:53;100939.63;;;8.62;100.00
64933;BME280;51446;53.850;10.662;2022-12-20T12:55:48;100946.28;;;8.51;100.00
64933;BME280;51446;53.850;10.662;2022-12-20T13:00:57;100924.84;;;8.63;100.00
64933;BME280;51446;53.850;10.662;2022-12-20T13:04:07;100919.31;;;8.52;100.00
64933;BME280;51446;53.850;10.662;2022-12-20T13:11:32;100911.41;;;8.49;100.00
64933;BME280;51446;53.850;10.662;2022-12-20T13:16:47;100920.56;;;8.34;100.00
64933;BME280;51446;53.850;10.662;2022-12-20T13:19:14;100916.03;;;8.59;100.00
64933;BME280;51446;53.850;10.662;2022-12-20T13:21:43;100913.81;;;8.43;100.00
64933;BME280;51446;53.850;10.662;2022-12-20T13:43:44;100892.78;;;8.38;100.00
64933;BME280;51446;53.850;10.662;2022-12-20T13:48:45;100892.63;;;8.32;100.00
64933;BME280;51446;53.850;10.662;2022-12-20T13:51:22;100889.81;;;8.24;100.00
64933;BME280;51446;53.850;10.662;2022-12-20T13:53:59;100895.88;;;8.23;100.00
64933;BME280;51446;53.850;10.662;2022-12-20T13:58:52;100901.88;;;8.21;100.00
64933;BME280;51446;53.850;10.662;2022-12-20T14:01:21;100894.66;;;8.10;100.00
64933;BME280;51446;53.850;10.662;2022-12-20T14:03:47;100902.59;;;8.15;100.00
64933;BME280;51446;53.850;10.662;2022-12-20T14:06:13;100901.69;;;8.13;100.00
64933;BME280;51446;53.850;10.662;2022-12-20T14:08:45;100909.41;;;8.08;100.00
64933;BME280;51446;53.850;10.662;2022-12-20T14:13:39;100920.59;;;8.04;100.00
64933;BME280;51446;53.850;10.662;2022-12-20T14:16:16;100920.44;;;7.98;100.00
64933;BME280;51446;53.850;10.662;2022-12-20T14:18:48;100919.56;;;7.99;100.00
64933;BME280;51446;53.850;10.662;2022-12-20T14:21:13;100924.59;;;7.91;100.00
64933;BME280;51446;53.850;10.662;2022-12-20T14:23:45;100919.31;;;7.90;100.00
64933;BME280;51446;53.850;10.662;2022-12-20T14:26:16;100922.63;;;7.84;100.00